sensor_id;sensor_type;location;lat;lon;timestamp;P1;durP1;ratioP1;P2;durP2;ratioP2
65033;SDS011;51601;51.356;12.458;2023-08-08T00:01:59;7.63;;;2.30;;
65033;SDS011;51601;51.356;12.458;2023-08-08T00:06:17;8.80;;;2.60;;
65033;SDS011;51601;51.356;12.458;2023-08-08T00:10:36;6.10;;;2.15;;
65033;SDS011;51601;51.356;12.458;2023-08-08T00:14:56;6.57;;;2.30;;
65033;SDS011;51601;51.356;12.458;2023-08-08T00:19:14;7.77;;;2.60;;
65033;SDS011;51601;51.356;12.458;2023-08-08T00:23:32;7.57;;;2.30;;
65033;SDS011;51601;51.356;12.458;2023-08-08T00:27:51;7.25;;;2.60;;
65033;SDS011;51601;51.356;12.458;2023-08-08T00:32:08;6.13;;;2.20;;
65033;SDS011;51601;51.356;12.458;2023-08-08T00:36:26;8.95;;;2.38;;
65033;SDS011;51601;51.356;12.458;2023-08-08T00:40:44;6.25;;;2.30;;
65033;SDS011;51601;51.356;12.458;2023-08-08T00:45:04;8.32;;;2.60;;
65033;SDS011;51601;51.356;12.458;2023-08-08T00:49:23;8.90;;;2.73;;
65033;SDS011;51601;51.356;12.458;2023-08-08T00:53:41;6.45;;;2.30;;
65033;SDS011;51601;51.356;12.458;2023-08-08T00:57:59;8.30;;;2.58;;
65033;SDS011;51601;51.356;12.458;2023-08-08T01:02:19;8.27;;;2.60;;
65033;SDS011;51601;51.356;12.458;2023-08-08T01:06:37;7.90;;;2.60;;
65033;SDS011;51601;51.356;12.458;2023-08-08T01:11:00;7.15;;;2.30;;
65033;SDS011;51601;51.356;12.458;2023-08-08T01:15:18;6.73;;;2.40;;
65033;SDS011;51601;51.356;12.458;2023-08-08T01:19:40;7.13;;;2.35;;
65033;SDS011;51601;51.356;12.458;2023-08-08T01:24:01;7.15;;;2.33;;
65033;SDS011;51601;51.356;12.458;2023-08-08T01:28:31;6.15;;;2.40;;
65033;SDS011;51601;51.356;12.458;2023-08-08T01:32:48;7.60;;;2.40;;
65033;SDS011;51601;51.356;12.458;2023-08-08T01:37:08;6.60;;;2.00;;
65033;SDS011;51601;51.356;12.458;2023-08-08T01:41:38;7.47;;;2.60;;
65033;SDS011;51601;51.356;12.458;2023-08-08T01:45:58;9.57;;;2.60;;
65033;SDS011;51601;51.356;12.458;2023-08-08T01:50:16;6.50;;;2.20;;
65033;SDS011;51601;51.356;12.458;2023-08-08T01:54:34;6.50;;;2.40;;
65033;SDS011;51601;51.356;12.458;2023-08-08T01:58:54;6.60;;;2.33;;
65033;SDS011;51601;51.356;12.458;2023-08-08T02:03:13;7.38;;;2.33;;
65033;SDS011;51601;51.356;12.458;2023-08-08T02:07:31;7.13;;;2.40;;
65033;SDS011;51601;51.356;12.458;2023-08-08T02:11:49;8.38;;;2.20;;
65033;SDS011;51601;51.356;12.458;2023-08-08T02:16:09;7.90;;;2.27;;
65033;SDS011;51601;51.356;12.458;2023-08-08T02:20:26;7.05;;;2.20;;
65033;SDS011;51601;51.356;12.458;2023-08-08T02:24:44;6.85;;;2.08;;
65033;SDS011;51601;51.356;12.458;2023-08-08T02:29:02;8.30;;;2.93;;
65033;SDS011;51601;51.356;12.458;2023-08-08T02:33:21;7.75;;;2.20;;
65033;SDS011;51601;51.356;12.458;2023-08-08T02:37:38;6.82;;;2.20;;
65033;SDS011;51601;51.356;12.458;2023-08-08T02:41:59;7.70;;;2.20;;
65033;SDS011;51601;51.356;12.458;2023-08-08T02:46:17;6.68;;;2.25;;
65033;SDS011;51601;51.356;12.458;2023-08-08T02:50:36;6.97;;;2.50;;
65033;SDS011;51601;51.356;12.458;2023-08-08T02:54:56;7.70;;;2.25;;
65033;SDS011;51601;51.356;12.458;2023-08-08T02:59:14;6.60;;;2.33;;
65033;SDS011;51601;51.356;12.458;2023-08-08T03:03:32;5.72;;;2.10;;
65033;SDS011;51601;51.356;12.458;2023-08-08T03:07:52;6.38;;;2.30;;
65033;SDS011;51601;51.356;12.458;2023-08-08T03:12:11;5.63;;;2.30;;
65033;SDS011;51601;51.356;12.458;2023-08-08T03:16:30;6.45;;;2.05;;
65033;SDS011;51601;51.356;12.458;2023-08-08T03:20:48;5.95;;;2.40;;
65033;SDS011;51601;51.356;12.458;2023-08-08T03:25:07;6.33;;;2.10;;
65033;SDS011;51601;51.356;12.458;2023-08-08T03:29:27;9.13;;;2.70;;
65033;SDS011;51601;51.356;12.458;2023-08-08T03:33:45;5.88;;;2.30;;
65033;SDS011;51601;51.356;12.458;2023-08-08T03:38:03;5.90;;;1.90;;
65033;SDS011;51601;51.356;12.458;2023-08-08T03:42:22;7.23;;;2.40;;
65033;SDS011;51601;51.356;12.458;2023-08-08T03:46:42;6.53;;;2.42;;
65033;SDS011;51601;51.356;12.458;2023-08-08T03:51:03;7.30;;;2.50;;
65033;SDS011;51601;51.356;12.458;2023-08-08T03:55:21;6.00;;;2.60;;
65033;SDS011;51601;51.356;12.458;2023-08-08T03:59:41;7.25;;;2.70;;
65033;SDS011;51601;51.356;12.458;2023-08-08T04:03:57;8.27;;;2.67;;
65033;SDS011;51601;51.356;12.458;2023-08-08T04:08:15;6.57;;;2.30;;
65033;SDS011;51601;51.356;12.458;2023-08-08T04:12:36;6.30;;;2.50;;
65033;SDS011;51601;51.356;12.458;2023-08-08T04:16:56;5.78;;;2.20;;
65033;SDS011;51601;51.356;12.458;2023-08-08T04:21:13;7.63;;;2.25;;
65033;SDS011;51601;51.356;12.458;2023-08-08T04:25:31;5.93;;;1.90;;
65033;SDS011;51601;51.356;12.458;2023-08-08T04:29:49;5.32;;;2.13;;
65033;SDS011;51601;51.356;12.458;2023-08-08T04:34:09;6.88;;;2.25;;
65033;SDS011;51601;51.356;12.458;2023-08-08T04:38:28;8.27;;;2.30;;
65033;SDS011;51601;51.356;12.458;2023-08-08T04:42:46;7.35;;;3.17;;
65033;SDS011;51601;51.356;12.458;2023-08-08T04:47:04;7.50;;;1.90;;
65033;SDS011;51601;51.356;12.458;2023-08-08T04:51:23;6.97;;;2.13;;
65033;SDS011;51601;51.356;12.458;2023-08-08T04:55:40;7.15;;;2.20;;
65033;SDS011;51601;51.356;12.458;2023-08-08T04:59:58;6.38;;;2.20;;
65033;SDS011;51601;51.356;12.458;2023-08-08T05:04:19;6.97;;;2.20;;
65033;SDS011;51601;51.356;12.458;2023-08-08T05:08:39;5.97;;;1.83;;
65033;SDS011;51601;51.356;12.458;2023-08-08T05:12:55;7.45;;;2.45;;
65033;SDS011;51601;51.356;12.458;2023-08-08T05:17:13;6.25;;;2.40;;
65033;SDS011;51601;51.356;12.458;2023-08-08T05:21:32;6.07;;;2.30;;
65033;SDS011;51601;51.356;12.458;2023-08-08T05:25:54;6.95;;;2.30;;
65033;SDS011;51601;51.356;12.458;2023-08-08T05:30:14;5.40;;;2.05;;
65033;SDS011;51601;51.356;12.458;2023-08-08T05:34:32;5.87;;;2.10;;
65033;SDS011;51601;51.356;12.458;2023-08-08T05:38:50;6.32;;;2.10;;
65033;SDS011;51601;51.356;12.458;2023-08-08T05:43:09;5.05;;;1.80;;
65033;SDS011;51601;51.356;12.458;2023-08-08T05:47:32;6.30;;;2.20;;
65033;SDS011;51601;51.356;12.458;2023-08-08T05:51:50;6.47;;;2.30;;
65033;SDS011;51601;51.356;12.458;2023-08-08T05:56:08;7.40;;;2.38;;
65033;SDS011;51601;51.356;12.458;2023-08-08T06:00:28;7.00;;;1.90;;
65033;SDS011;51601;51.356;12.458;2023-08-08T06:04:47;5.90;;;2.10;;
65033;SDS011;51601;51.356;12.458;2023-08-08T06:09:06;5.30;;;1.85;;
65033;SDS011;51601;51.356;12.458;2023-08-08T06:13:24;6.00;;;1.98;;
65033;SDS011;51601;51.356;12.458;2023-08-08T06:17:43;5.23;;;1.80;;
65033;SDS011;51601;51.356;12.458;2023-08-08T06:22:00;5.90;;;1.70;;
65033;SDS011;51601;51.356;12.458;2023-08-08T06:26:18;5.07;;;1.90;;
65033;SDS011;51601;51.356;12.458;2023-08-08T06:30:36;8.20;;;1.80;;
65033;SDS011;51601;51.356;12.458;2023-08-08T06:34:55;5.20;;;2.00;;
65033;SDS011;51601;51.356;12.458;2023-08-08T06:39:15;7.65;;;1.83;;
65033;SDS011;51601;51.356;12.458;2023-08-08T06:43:36;5.80;;;1.60;;
65033;SDS011;51601;51.356;12.458;2023-08-08T06:47:54;4.53;;;1.70;;
65033;SDS011;51601;51.356;12.458;2023-08-08T06:52:14;5.13;;;1.60;;
65033;SDS011;51601;51.356;12.458;2023-08-08T06:56:30;5.03;;;1.67;;
65033;SDS011;51601;51.356;12.458;2023-08-08T07:00:49;4.57;;;1.77;;
65033;SDS011;51601;51.356;12.458;2023-08-08T07:05:07;5.97;;;1.70;;
65033;SDS011;51601;51.356;12.458;2023-08-08T07:09:27;5.22;;;1.90;;
65033;SDS011;51601;51.356;12.458;2023-08-08T07:13:46;4.28;;;1.40;;
65033;SDS011;51601;51.356;12.458;2023-08-08T07:18:04;6.27;;;1.63;;
65033;SDS011;51601;51.356;12.458;2023-08-08T07:22:22;4.57;;;1.50;;
65033;SDS011;51601;51.356;12.458;2023-08-08T07:26:41;5.43;;;1.70;;
65033;SDS011;51601;51.356;12.458;2023-08-08T07:30:58;5.13;;;1.70;;
65033;SDS011;51601;51.356;12.458;2023-08-08T07:35:16;4.82;;;1.60;;
65033;SDS011;51601;51.356;12.458;2023-08-08T07:39:34;4.55;;;1.60;;
65033;SDS011;51601;51.356;12.458;2023-08-08T07:43:53;5.40;;;1.90;;
65033;SDS011;51601;51.356;12.458;2023-08-08T07:48:10;8.00;;;1.65;;
65033;SDS011;51601;51.356;12.458;2023-08-08T07:52:28;5.25;;;1.98;;
65033;SDS011;51601;51.356;12.458;2023-08-08T07:56:46;5.97;;;2.20;;
65033;SDS011;51601;51.356;12.458;2023-08-08T08:01:06;6.77;;;1.90;;
65033;SDS011;51601;51.356;12.458;2023-08-08T08:05:25;5.15;;;2.03;;
65033;SDS011;51601;51.356;12.458;2023-08-08T08:09:43;6.65;;;2.05;;
65033;SDS011;51601;51.356;12.458;2023-08-08T08:14:02;5.30;;;2.20;;
65033;SDS011;51601;51.356;12.458;2023-08-08T08:18:21;6.40;;;2.10;;
65033;SDS011;51601;51.356;12.458;2023-08-08T08:22:41;6.35;;;2.00;;
65033;SDS011;51601;51.356;12.458;2023-08-08T08:26:59;6.23;;;2.10;;
65033;SDS011;51601;51.356;12.458;2023-08-08T08:31:17;5.35;;;2.00;;
65033;SDS011;51601;51.356;12.458;2023-08-08T08:35:36;5.30;;;1.90;;
65033;SDS011;51601;51.356;12.458;2023-08-08T08:39:56;8.82;;;2.17;;
65033;SDS011;51601;51.356;12.458;2023-08-08T08:44:14;4.40;;;1.70;;
65033;SDS011;51601;51.356;12.458;2023-08-08T08:48:35;6.50;;;2.10;;
65033;SDS011;51601;51.356;12.458;2023-08-08T08:52:55;4.88;;;1.90;;
65033;SDS011;51601;51.356;12.458;2023-08-08T08:57:14;6.90;;;1.90;;
65033;SDS011;51601;51.356;12.458;2023-08-08T09:01:32;5.35;;;2.10;;
65033;SDS011;51601;51.356;12.458;2023-08-08T09:05:50;5.90;;;2.20;;
65033;SDS011;51601;51.356;12.458;2023-08-08T09:10:13;7.50;;;2.13;;
65033;SDS011;51601;51.356;12.458;2023-08-08T09:14:33;7.38;;;2.22;;
65033;SDS011;51601;51.356;12.458;2023-08-08T09:18:51;6.20;;;1.98;;
65033;SDS011;51601;51.356;12.458;2023-08-08T09:23:09;5.53;;;2.10;;
65033;SDS011;51601;51.356;12.458;2023-08-08T09:27:29;6.33;;;2.10;;
65033;SDS011;51601;51.356;12.458;2023-08-08T09:31:48;5.72;;;2.08;;
65033;SDS011;51601;51.356;12.458;2023-08-08T09:36:06;8.98;;;2.10;;
65033;SDS011;51601;51.356;12.458;2023-08-08T09:40:24;6.93;;;2.40;;
65033;SDS011;51601;51.356;12.458;2023-08-08T09:44:43;5.85;;;2.35;;
65033;SDS011;51601;51.356;12.458;2023-08-08T09:49:00;5.97;;;2.10;;
65033;SDS011;51601;51.356;12.458;2023-08-08T09:53:18;4.47;;;1.70;;
65033;SDS011;51601;51.356;12.458;2023-08-08T09:57:37;5.65;;;1.63;;
65033;SDS011;51601;51.356;12.458;2023-08-08T10:01:59;5.10;;;1.80;;
65033;SDS011;51601;51.356;12.458;2023-08-08T10:06:18;4.53;;;1.83;;
65033;SDS011;51601;51.356;12.458;2023-08-08T10:10:37;5.73;;;1.63;;
65033;SDS011;51601;51.356;12.458;2023-08-08T10:14:58;4.90;;;1.70;;
65033;SDS011;51601;51.356;12.458;2023-08-08T10:19:21;5.65;;;1.60;;
65033;SDS011;51601;51.356;12.458;2023-08-08T10:23:40;4.67;;;1.53;;
65033;SDS011;51601;51.356;12.458;2023-08-08T10:28:01;5.60;;;1.60;;
65033;SDS011;51601;51.356;12.458;2023-08-08T10:32:41;5.28;;;1.92;;
65033;SDS011;51601;51.356;12.458;2023-08-08T10:37:00;4.80;;;1.77;;
65033;SDS011;51601;51.356;12.458;2023-08-08T10:41:25;5.82;;;2.05;;
65033;SDS011;51601;51.356;12.458;2023-08-08T10:45:44;5.40;;;1.80;;
65033;SDS011;51601;51.356;12.458;2023-08-08T10:50:15;5.20;;;1.90;;
65033;SDS011;51601;51.356;12.458;2023-08-08T10:54:51;5.33;;;1.80;;
65033;SDS011;51601;51.356;12.458;2023-08-08T10:59:13;6.35;;;1.85;;
65033;SDS011;51601;51.356;12.458;2023-08-08T11:03:34;4.80;;;1.67;;
65033;SDS011;51601;51.356;12.458;2023-08-08T11:07:54;5.20;;;1.67;;
65033;SDS011;51601;51.356;12.458;2023-08-08T11:12:17;6.35;;;2.00;;
65033;SDS011;51601;51.356;12.458;2023-08-08T11:16:33;5.15;;;1.77;;
65033;SDS011;51601;51.356;12.458;2023-08-08T11:20:51;4.77;;;1.83;;
65033;SDS011;51601;51.356;12.458;2023-08-08T11:25:25;4.75;;;1.77;;
65033;SDS011;51601;51.356;12.458;2023-08-08T11:29:49;6.65;;;2.10;;
65033;SDS011;51601;51.356;12.458;2023-08-08T11:34:07;6.40;;;2.13;;
65033;SDS011;51601;51.356;12.458;2023-08-08T11:38:28;6.27;;;2.17;;
65033;SDS011;51601;51.356;12.458;2023-08-08T11:42:50;5.45;;;1.83;;
65033;SDS011;51601;51.356;12.458;2023-08-08T11:47:09;6.65;;;1.80;;
65033;SDS011;51601;51.356;12.458;2023-08-08T11:51:26;5.83;;;1.93;;
65033;SDS011;51601;51.356;12.458;2023-08-08T11:55:47;5.53;;;1.90;;
65033;SDS011;51601;51.356;12.458;2023-08-08T12:00:05;4.95;;;1.90;;
65033;SDS011;51601;51.356;12.458;2023-08-08T12:04:35;5.53;;;1.90;;
65033;SDS011;51601;51.356;12.458;2023-08-08T12:08:53;7.03;;;2.00;;
65033;SDS011;51601;51.356;12.458;2023-08-08T12:13:11;5.40;;;2.13;;
65033;SDS011;51601;51.356;12.458;2023-08-08T12:17:30;6.45;;;2.22;;
65033;SDS011;51601;51.356;12.458;2023-08-08T12:21:52;6.00;;;2.13;;
65033;SDS011;51601;51.356;12.458;2023-08-08T12:26:08;6.22;;;2.03;;
65033;SDS011;51601;51.356;12.458;2023-08-08T12:30:26;6.07;;;2.00;;
65033;SDS011;51601;51.356;12.458;2023-08-08T12:34:44;4.80;;;1.93;;
65033;SDS011;51601;51.356;12.458;2023-08-08T12:39:04;5.80;;;2.03;;
65033;SDS011;51601;51.356;12.458;2023-08-08T12:43:24;5.13;;;1.80;;
65033;SDS011;51601;51.356;12.458;2023-08-08T12:47:42;5.47;;;1.90;;
65033;SDS011;51601;51.356;12.458;2023-08-08T12:52:00;5.47;;;1.80;;
65033;SDS011;51601;51.356;12.458;2023-08-08T12:56:19;4.95;;;1.63;;
65033;SDS011;51601;51.356;12.458;2023-08-08T13:00:39;6.30;;;1.63;;
65033;SDS011;51601;51.356;12.458;2023-08-08T13:04:57;5.13;;;1.80;;
65033;SDS011;51601;51.356;12.458;2023-08-08T13:09:15;5.40;;;1.73;;
65033;SDS011;51601;51.356;12.458;2023-08-08T13:13:34;5.13;;;1.70;;
65033;SDS011;51601;51.356;12.458;2023-08-08T13:17:51;6.30;;;1.70;;
65033;SDS011;51601;51.356;12.458;2023-08-08T13:22:09;7.75;;;1.90;;
65033;SDS011;51601;51.356;12.458;2023-08-08T13:26:27;6.32;;;1.80;;
65033;SDS011;51601;51.356;12.458;2023-08-08T13:30:47;5.73;;;1.90;;
65033;SDS011;51601;51.356;12.458;2023-08-08T13:35:04;4.88;;;2.08;;
65033;SDS011;51601;51.356;12.458;2023-08-08T13:39:22;6.03;;;2.38;;
65033;SDS011;51601;51.356;12.458;2023-08-08T13:43:39;5.47;;;2.20;;
65033;SDS011;51601;51.356;12.458;2023-08-08T13:47:59;7.07;;;2.20;;
65033;SDS011;51601;51.356;12.458;2023-08-08T13:52:16;5.57;;;2.00;;
65033;SDS011;51601;51.356;12.458;2023-08-08T13:56:34;6.57;;;2.00;;
65033;SDS011;51601;51.356;12.458;2023-08-08T14:00:52;6.30;;;2.67;;
65033;SDS011;51601;51.356;12.458;2023-08-08T14:05:11;5.35;;;2.05;;
65033;SDS011;51601;51.356;12.458;2023-08-08T14:09:28;6.15;;;2.35;;
65033;SDS011;51601;51.356;12.458;2023-08-08T14:13:46;7.50;;;2.30;;
65033;SDS011;51601;51.356;12.458;2023-08-08T14:18:04;7.75;;;2.45;;
65033;SDS011;51601;51.356;12.458;2023-08-08T14:22:27;6.72;;;2.50;;
65033;SDS011;51601;51.356;12.458;2023-08-08T14:26:43;7.75;;;3.00;;
65033;SDS011;51601;51.356;12.458;2023-08-08T14:31:01;7.83;;;2.70;;
65033;SDS011;51601;51.356;12.458;2023-08-08T14:35:22;7.45;;;3.20;;
65033;SDS011;51601;51.356;12.458;2023-08-08T14:39:42;7.03;;;3.00;;
65033;SDS011;51601;51.356;12.458;2023-08-08T14:43:58;7.03;;;3.03;;
65033;SDS011;51601;51.356;12.458;2023-08-08T14:48:16;8.32;;;3.00;;
65033;SDS011;51601;51.356;12.458;2023-08-08T14:52:35;6.03;;;2.78;;
65033;SDS011;51601;51.356;12.458;2023-08-08T14:56:54;7.37;;;3.03;;
65033;SDS011;51601;51.356;12.458;2023-08-08T15:01:11;6.45;;;3.00;;
65033;SDS011;51601;51.356;12.458;2023-08-08T15:05:29;7.63;;;2.92;;
65033;SDS011;51601;51.356;12.458;2023-08-08T15:09:47;8.52;;;2.90;;
65033;SDS011;51601;51.356;12.458;2023-08-08T15:14:06;5.90;;;2.27;;
65033;SDS011;51601;51.356;12.458;2023-08-08T15:18:23;5.85;;;2.30;;
65033;SDS011;51601;51.356;12.458;2023-08-08T15:22:41;7.13;;;2.00;;
65033;SDS011;51601;51.356;12.458;2023-08-08T15:26:59;5.67;;;1.93;;
65033;SDS011;51601;51.356;12.458;2023-08-08T15:31:19;5.18;;;1.83;;
65033;SDS011;51601;51.356;12.458;2023-08-08T15:35:35;4.97;;;1.88;;
65033;SDS011;51601;51.356;12.458;2023-08-08T15:39:53;7.47;;;2.23;;
65033;SDS011;51601;51.356;12.458;2023-08-08T15:44:11;5.65;;;2.15;;
65033;SDS011;51601;51.356;12.458;2023-08-08T15:48:31;6.72;;;2.00;;
65033;SDS011;51601;51.356;12.458;2023-08-08T15:52:50;8.00;;;2.15;;
65033;SDS011;51601;51.356;12.458;2023-08-08T15:57:12;5.97;;;2.20;;
65033;SDS011;51601;51.356;12.458;2023-08-08T16:01:30;5.00;;;2.00;;
65033;SDS011;51601;51.356;12.458;2023-08-08T16:05:49;6.80;;;2.08;;
65033;SDS011;51601;51.356;12.458;2023-08-08T16:10:09;5.73;;;2.10;;
65033;SDS011;51601;51.356;12.458;2023-08-08T16:14:27;5.20;;;2.10;;
65033;SDS011;51601;51.356;12.458;2023-08-08T16:18:45;6.05;;;1.90;;
65033;SDS011;51601;51.356;12.458;2023-08-08T16:23:04;7.33;;;2.30;;
65033;SDS011;51601;51.356;12.458;2023-08-08T16:27:21;6.55;;;1.90;;
65033;SDS011;51601;51.356;12.458;2023-08-08T16:31:39;5.60;;;2.20;;
65033;SDS011;51601;51.356;12.458;2023-08-08T16:35:57;6.65;;;1.95;;
65033;SDS011;51601;51.356;12.458;2023-08-08T16:40:17;5.97;;;2.10;;
65033;SDS011;51601;51.356;12.458;2023-08-08T16:44:33;6.45;;;2.42;;
65033;SDS011;51601;51.356;12.458;2023-08-08T16:48:51;8.90;;;2.42;;
65033;SDS011;51601;51.356;12.458;2023-08-08T16:53:09;5.10;;;1.80;;
65033;SDS011;51601;51.356;12.458;2023-08-08T16:57:29;6.50;;;2.20;;
65033;SDS011;51601;51.356;12.458;2023-08-08T17:01:45;6.38;;;2.35;;
65033;SDS011;51601;51.356;12.458;2023-08-08T17:06:04;6.20;;;2.17;;
65033;SDS011;51601;51.356;12.458;2023-08-08T17:10:25;7.05;;;2.20;;
65033;SDS011;51601;51.356;12.458;2023-08-08T17:14:45;7.00;;;2.33;;
65033;SDS011;51601;51.356;12.458;2023-08-08T17:19:04;6.75;;;2.33;;
65033;SDS011;51601;51.356;12.458;2023-08-08T17:23:25;7.10;;;2.23;;
65033;SDS011;51601;51.356;12.458;2023-08-08T17:27:43;5.97;;;2.17;;
65033;SDS011;51601;51.356;12.458;2023-08-08T17:32:03;7.63;;;2.30;;
65033;SDS011;51601;51.356;12.458;2023-08-08T17:36:22;5.70;;;2.30;;
65033;SDS011;51601;51.356;12.458;2023-08-08T17:40:40;7.40;;;2.00;;
65033;SDS011;51601;51.356;12.458;2023-08-08T17:44:58;5.88;;;2.10;;
65033;SDS011;51601;51.356;12.458;2023-08-08T17:49:18;6.70;;;2.30;;
65033;SDS011;51601;51.356;12.458;2023-08-08T17:53:37;6.15;;;2.38;;
65033;SDS011;51601;51.356;12.458;2023-08-08T17:57:56;9.32;;;2.63;;
65033;SDS011;51601;51.356;12.458;2023-08-08T18:02:14;6.75;;;2.10;;
65033;SDS011;51601;51.356;12.458;2023-08-08T18:06:33;7.23;;;2.00;;
65033;SDS011;51601;51.356;12.458;2023-08-08T18:10:50;6.10;;;2.28;;
65033;SDS011;51601;51.356;12.458;2023-08-08T18:15:08;5.88;;;2.00;;
65033;SDS011;51601;51.356;12.458;2023-08-08T18:19:26;5.97;;;2.17;;
65033;SDS011;51601;51.356;12.458;2023-08-08T18:23:45;7.50;;;2.08;;
65033;SDS011;51601;51.356;12.458;2023-08-08T18:28:05;5.68;;;1.95;;
65033;SDS011;51601;51.356;12.458;2023-08-08T18:32:23;7.33;;;2.30;;
65033;SDS011;51601;51.356;12.458;2023-08-08T18:36:41;7.70;;;2.30;;
65033;SDS011;51601;51.356;12.458;2023-08-08T18:41:01;6.10;;;2.05;;
65033;SDS011;51601;51.356;12.458;2023-08-08T18:45:20;5.57;;;1.92;;
65033;SDS011;51601;51.356;12.458;2023-08-08T18:49:39;6.57;;;2.03;;
65033;SDS011;51601;51.356;12.458;2023-08-08T18:53:57;5.65;;;1.90;;
65033;SDS011;51601;51.356;12.458;2023-08-08T18:58:16;6.75;;;2.10;;
65033;SDS011;51601;51.356;12.458;2023-08-08T19:02:33;6.93;;;2.23;;
65033;SDS011;51601;51.356;12.458;2023-08-08T19:06:51;7.63;;;2.03;;
65033;SDS011;51601;51.356;12.458;2023-08-08T19:11:09;7.90;;;2.08;;
65033;SDS011;51601;51.356;12.458;2023-08-08T19:15:28;6.50;;;2.17;;
65033;SDS011;51601;51.356;12.458;2023-08-08T19:19:48;7.63;;;2.13;;
65033;SDS011;51601;51.356;12.458;2023-08-08T19:24:06;5.15;;;2.10;;
65033;SDS011;51601;51.356;12.458;2023-08-08T19:28:24;5.80;;;2.15;;
65033;SDS011;51601;51.356;12.458;2023-08-08T19:32:44;7.30;;;1.90;;
65033;SDS011;51601;51.356;12.458;2023-08-08T19:37:00;6.13;;;2.00;;
65033;SDS011;51601;51.356;12.458;2023-08-08T19:41:18;6.35;;;2.33;;
65033;SDS011;51601;51.356;12.458;2023-08-08T19:45:36;5.37;;;2.00;;
65033;SDS011;51601;51.356;12.458;2023-08-08T19:49:56;5.43;;;2.10;;
65033;SDS011;51601;51.356;12.458;2023-08-08T19:54:13;5.72;;;2.50;;
65033;SDS011;51601;51.356;12.458;2023-08-08T19:58:31;6.50;;;2.40;;
65033;SDS011;51601;51.356;12.458;2023-08-08T20:02:49;6.40;;;2.40;;
65033;SDS011;51601;51.356;12.458;2023-08-08T20:07:08;7.10;;;2.15;;
65033;SDS011;51601;51.356;12.458;2023-08-08T20:11:25;5.68;;;1.90;;
65033;SDS011;51601;51.356;12.458;2023-08-08T20:15:43;6.60;;;2.07;;
65033;SDS011;51601;51.356;12.458;2023-08-08T20:20:01;5.95;;;2.15;;
65033;SDS011;51601;51.356;12.458;2023-08-08T20:24:21;6.13;;;2.10;;
65033;SDS011;51601;51.356;12.458;2023-08-08T20:28:40;6.90;;;2.73;;
65033;SDS011;51601;51.356;12.458;2023-08-08T20:32:58;5.57;;;1.95;;
65033;SDS011;51601;51.356;12.458;2023-08-08T20:37:19;6.75;;;2.30;;
65033;SDS011;51601;51.356;12.458;2023-08-08T20:41:39;6.30;;;2.37;;
65033;SDS011;51601;51.356;12.458;2023-08-08T20:45:55;5.80;;;2.10;;
65033;SDS011;51601;51.356;12.458;2023-08-08T20:50:13;9.00;;;2.60;;
65033;SDS011;51601;51.356;12.458;2023-08-08T20:54:32;6.55;;;2.20;;
65033;SDS011;51601;51.356;12.458;2023-08-08T20:58:52;7.37;;;2.30;;
65033;SDS011;51601;51.356;12.458;2023-08-08T21:03:11;7.63;;;2.40;;
65033;SDS011;51601;51.356;12.458;2023-08-08T21:07:32;6.35;;;2.30;;
65033;SDS011;51601;51.356;12.458;2023-08-08T21:11:50;6.77;;;2.90;;
65033;SDS011;51601;51.356;12.458;2023-08-08T21:16:10;8.50;;;2.40;;
65033;SDS011;51601;51.356;12.458;2023-08-08T21:20:30;6.35;;;2.88;;
65033;SDS011;51601;51.356;12.458;2023-08-08T21:24:48;6.47;;;2.80;;
65033;SDS011;51601;51.356;12.458;2023-08-08T21:29:06;7.45;;;2.50;;
65033;SDS011;51601;51.356;12.458;2023-08-08T21:33:25;6.20;;;2.40;;
65033;SDS011;51601;51.356;12.458;2023-08-08T21:37:42;5.35;;;2.30;;
65033;SDS011;51601;51.356;12.458;2023-08-08T21:42:00;6.90;;;2.30;;
65033;SDS011;51601;51.356;12.458;2023-08-08T21:46:18;6.72;;;2.38;;
65033;SDS011;51601;51.356;12.458;2023-08-08T21:50:37;5.95;;;2.50;;
65033;SDS011;51601;51.356;12.458;2023-08-08T21:54:54;6.63;;;2.60;;
65033;SDS011;51601;51.356;12.458;2023-08-08T21:59:12;7.63;;;2.50;;
65033;SDS011;51601;51.356;12.458;2023-08-08T22:03:30;6.63;;;2.45;;
65033;SDS011;51601;51.356;12.458;2023-08-08T22:07:50;9.23;;;2.77;;
65033;SDS011;51601;51.356;12.458;2023-08-08T22:12:06;6.45;;;2.50;;
65033;SDS011;51601;51.356;12.458;2023-08-08T22:16:24;7.10;;;2.40;;
65033;SDS011;51601;51.356;12.458;2023-08-08T22:20:43;5.70;;;2.30;;
65033;SDS011;51601;51.356;12.458;2023-08-08T22:25:02;6.87;;;2.03;;
65033;SDS011;51601;51.356;12.458;2023-08-08T22:29:22;6.57;;;2.20;;
65033;SDS011;51601;51.356;12.458;2023-08-08T22:33:43;6.18;;;2.17;;
65033;SDS011;51601;51.356;12.458;2023-08-08T22:38:01;5.67;;;2.40;;
65033;SDS011;51601;51.356;12.458;2023-08-08T22:42:20;7.13;;;2.45;;
65033;SDS011;51601;51.356;12.458;2023-08-08T22:46:37;6.43;;;2.33;;
65033;SDS011;51601;51.356;12.458;2023-08-08T22:50:58;9.77;;;2.93;;
65033;SDS011;51601;51.356;12.458;2023-08-08T22:55:19;6.78;;;2.88;;
65033;SDS011;51601;51.356;12.458;2023-08-08T22:59:39;6.70;;;2.58;;
65033;SDS011;51601;51.356;12.458;2023-08-08T23:03:55;8.32;;;2.40;;
65033;SDS011;51601;51.356;12.458;2023-08-08T23:08:23;6.70;;;2.70;;
65033;SDS011;51601;51.356;12.458;2023-08-08T23:12:44;6.30;;;2.30;;
65033;SDS011;51601;51.356;12.458;2023-08-08T23:17:03;8.10;;;2.70;;
65033;SDS011;51601;51.356;12.458;2023-08-08T23:21:20;6.20;;;2.50;;
65033;SDS011;51601;51.356;12.458;2023-08-08T23:25:38;7.15;;;2.38;;
65033;SDS011;51601;51.356;12.458;2023-08-08T23:29:56;6.32;;;2.30;;
65033;SDS011;51601;51.356;12.458;2023-08-08T23:34:15;7.77;;;2.60;;
65033;SDS011;51601;51.356;12.458;2023-08-08T23:38:32;5.63;;;2.35;;
65033;SDS011;51601;51.356;12.458;2023-08-08T23:42:53;6.32;;;2.33;;
65033;SDS011;51601;51.356;12.458;2023-08-08T23:47:11;6.65;;;2.30;;
65033;SDS011;51601;51.356;12.458;2023-08-08T23:51:31;6.67;;;2.40;;
65033;SDS011;51601;51.356;12.458;2023-08-08T23:55:47;8.27;;;2.47;;
